Aérodrome :
LOGIN :

S'inscrire | Disclaimer

   EN    FR    IT 

 










Légende :    VFR   VFR Marginal   IFR   IFR Intensif   IFR Très Intensif
Visi : 
Plafond : 
>= 8 km
>= 3000ft
5 à 8 km
1000 à 3000 ft
1500m à 5 km
500 à 1000 ft
800 à 1500m
200 à 500 ft
< 800m
< 200 ft
Symboles :   Orages  Brouillard  Fortes neiges  Fortes précipitations  Vent > 20 kt
SIGMETs :   Divers  Orages  Givrage  Turbulence  Onde Orograph.  Cendres Volcan.







- Altitude de l'aérodrome : 461 ft
- Code IATA : WIE


ETOU - Wiesbaden Army

DERNIER METAR :
  • 231556Z AUTO 27006KT 9999 OVC065 12/08 A3015 RMK AO2 VIS 2000 RWY07 SLP214 T01190076 $

METARs EXPIRÉS :
  • 231456Z AUTO 28005KT 9999 OVC050 12/07 A3014 RMK AO2 VIS 2000 RWY07 SLP210 T01210072 53005 $
  • 231356Z AUTO 28011KT 9999 FEW030 OVC038 13/07 A3013 RMK AO2 VIS 2400 RWY07 SLP207 T01250065 $

TAF AMD TAF ETOU
Valide du 23 à 15h jusqu'au 24 à 17h UTC


231541Z 2315/2417 27009KT 9999 BKN025 620507 QNH3010INS
BECMG 2317/2318 24009KT 9999 BKN035 620507 QNH3016INS
BECMG 2401/2402 20006KT 9000 -RA OVC020 620804 QNH3020INS
BECMG 2413/2414 22009KT 8000 -RA OVC015 QNH3022INS TX13/2410Z TN08/2403Z
Pas de NOTAMs connus pour ce terrain.



MET'MAP, la Météo Aéronautique d'un coup d'oeil ! - Copyright ORBIFLY Décembre 2007 - Disclaimer

ORBIFLY MET'MAP TEAM :

Programmation & Développement : Alexandra Zaïnal
Conception & Développement : Baudouin d'Aumeries
Co-Programmation & Développement : Marc-Olivier Méhu
Soutien technique & logistique : Manuel Goepfert

Contact : metmap@orbifly.com




SOURCES & CREDITS :

   NOAA